Latest Weather Observations for CFS Mobile A

IDS60801

Issued at 11:02 am CDT Monday 27 November 2017 (issued every 30 minutes, with the page automatically refreshed every 10 minutes)

About weather observations | Map of weather stations | Latest weather observations for SA | Other Formats
Station Details ID: 250033 Name: PORTABLE CFSA Lat: -35.02 Lon: 138.57 Height: 46.0 m
Data from the previous 72 hours. | See also: Recent months for locations in South Australia
Date/Time
CDT
Temp
°C
App
Temp
°C
Dew
Point
°C
Rel
Hum
%
Delta-T
°C
Wind Press
QNH
hPa
Press
MSL
hPa
Rain since
9am
mm
Dir  Spd
km/h
Gust
km/h
Spd
kts
Gust
kts
27/11:00am 22.4 20.6 8.1 40 7.5 ESE 7 20 4 11 - - 0.0
27/10:50am 22.3 -49.5 8.5 41 7.3 N 376 376 203 203 - - 0.0
27/07:40am 16.1 14.3 9.6 65 3.4 SE 9 20 5 11 - - 0.0
27/07:30am 15.7 14.3 9.4 66 3.3 ESE 7 19 4 10 - - 0.0
27/07:20am 15.7 14.9 9.5 66 3.2 SE 4 15 2 8 - - 0.0
27/07:10am 15.5 14.3 9.5 67 3.1 ESE 6 13 3 7 - - 0.0
27/07:00am 15.4 15.0 9.6 68 3.0 SE 2 9 1 5 - - 0.0
27/06:50am 14.9 14.1 9.6 70 2.7 SE 4 9 2 5 - - 0.0
27/06:40am 14.9 14.1 9.8 71 2.6 S 4 9 2 5 - - 0.0
27/06:30am 14.6 13.8 9.5 71 2.6 SSE 4 7 2 4 - - 0.0
27/06:20am 14.7 13.9 9.6 71 2.6 SSE 4 7 2 4 - - 0.0
27/06:10am 14.9 13.7 9.5 70 2.8 SSE 6 15 3 8 - - 0.0
27/06:00am 15.2 13.8 9.5 69 2.9 ESE 7 19 4 10 - - 0.0
27/05:50am 15.4 14.2 9.4 67 3.1 SE 6 13 3 7 - - 0.0
27/05:40am 15.6 14.1 9.3 66 3.3 SE 7 15 4 8 - - 0.0
27/05:30am 15.6 15.1 9.2 65 3.3 ESE 2 7 1 4 - - 0.0
27/05:20am 15.6 14.1 9.1 65 3.3 ESE 7 15 4 8 - - 0.0
27/05:10am 15.7 14.4 9.1 65 3.4 ESE 6 17 3 9 - - 0.0
27/05:00am 15.7 14.2 9.0 64 3.4 ESE 7 17 4 9 - - 0.0
27/04:50am 15.7 14.1 8.9 64 3.5 ESE 7 15 4 8 - - 0.0
27/04:40am 15.7 14.3 8.9 64 3.5 ESE 6 17 3 9 - - 0.0
27/04:30am 15.8 14.3 9.0 64 3.5 ESE 7 15 4 8 - - 0.0
27/04:20am 15.8 14.4 8.9 63 3.5 E 6 15 3 8 - - 0.0
27/04:10am 15.8 13.8 8.8 63 3.6 ESE 9 19 5 10 - - 0.0
27/04:00am 15.8 14.2 8.8 63 3.6 SE 7 15 4 8 - - 0.0
27/03:50am 15.8 13.8 8.7 62 3.6 SE 9 20 5 11 - - 0.0
27/03:40am 15.9 13.5 8.8 62 3.6 E 11 24 6 13 - - 0.0
27/03:30am 16.0 15.1 9.1 63 3.6 E 4 13 2 7 - - 0.0
27/03:20am 16.0 14.7 9.1 63 3.6 ESE 6 11 3 6 - - 0.0
27/03:10am 15.9 14.4 9.0 63 3.5 ESE 7 15 4 8 - - 0.0
27/03:00am 15.9 14.4 9.0 63 3.5 SE 7 15 4 8 - - 0.0
27/02:50am 15.8 14.4 8.9 63 3.5 SE 6 15 3 8 - - 0.0
27/02:40am 15.8 13.4 8.8 63 3.6 SE 11 22 6 12 - - 0.0
27/02:30am 15.8 14.2 8.9 63 3.5 SE 7 20 4 11 - - 0.0
27/02:20am 15.9 13.2 8.9 63 3.6 ESE 13 35 7 19 - - 0.0
27/02:10am 15.9 14.5 9.0 63 3.5 ESE 6 17 3 9 - - 0.0
27/02:00am 15.9 14.4 9.0 63 3.5 SE 7 20 4 11 - - 0.0
27/01:50am 15.9 14.3 8.9 63 3.6 SE 7 17 4 9 - - 0.0
27/01:40am 15.9 14.3 8.8 62 3.6 ESE 7 22 4 12 - - 0.0
27/01:30am 15.9 14.4 9.1 64 3.5 SE 7 22 4 12 - - 0.0
27/01:20am 15.9 12.8 9.0 63 3.5 SE 15 30 8 16 - - 0.0
27/01:10am 16.0 14.1 9.2 64 3.5 ESE 9 20 5 11 - - 0.0
27/01:00am 16.1 14.3 9.4 64 3.5 ESE 9 19 5 10 - - 0.0
27/12:50am 16.1 14.7 9.4 64 3.5 SE 7 20 4 11 - - 0.0
27/12:40am 16.1 14.3 9.4 64 3.5 SE 9 30 5 16 - - 0.0
27/12:30am 16.1 14.6 9.3 64 3.5 SE 7 19 4 10 - - 0.0
27/12:20am 16.1 14.6 9.2 63 3.6 ESE 7 20 4 11 - - 0.0
27/12:10am 16.2 14.0 9.2 63 3.6 SSE 11 28 6 15 - - 0.0
27/12:00am 16.3 14.1 9.5 64 3.5 SE 11 24 6 13 - - 0.0
 
Date/Time
CDT
Temp
°C
App
Temp
°C
Dew
Point
°C
Rel
Hum
%
Delta-T
°C
Wind Press
QNH
hPa
Press
MSL
hPa
Rain since
9am
mm
Dir  Spd
km/h
Gust
km/h
Spd
kts
Gust
kts
26/11:50pm 16.3 14.9 9.5 64 3.5 SE 7 24 4 13 - - 0.0
26/11:40pm 16.3 14.9 9.5 64 3.5 SE 7 22 4 12 - - 0.0
26/11:30pm 16.4 13.8 9.4 63 3.6 SE 13 26 7 14 - - 0.0
26/11:20pm 16.5 14.7 9.4 63 3.7 SSE 9 24 5 13 - - 0.0
26/11:10pm 16.6 14.4 9.5 63 3.7 SE 11 32 6 17 - - 0.0
26/11:00pm 16.6 14.8 9.6 63 3.7 SSE 9 24 5 13 - - 0.0
26/10:50pm 16.6 14.5 9.8 64 3.6 SE 11 28 6 15 - - 0.0
26/10:40pm 16.8 15.5 10.1 64 3.5 SSE 7 17 4 9 - - 0.0
26/10:30pm 16.8 15.6 10.2 65 3.5 SSE 7 20 4 11 - - 0.0
26/10:20pm 16.8 15.2 10.2 65 3.5 SSE 9 24 5 13 - - 0.0
26/10:10pm 16.8 15.2 10.2 65 3.5 SSE 9 26 5 14 - - 0.0
26/10:00pm 16.9 15.6 11.2 69 3.1 SSE 9 17 5 9 - - 0.0
26/09:40pm 17.0 16.2 11.7 71 2.9 ESE 7 17 4 9 - - 0.0
26/09:30pm 17.0 16.4 11.8 71 2.8 SSE 6 11 3 6 - - 0.0
26/09:20pm 17.0 16.4 11.7 71 2.9 SSE 6 15 3 8 - - 0.0
26/09:10pm 16.9 16.1 11.6 71 2.9 SSE 7 15 4 8 - - 0.0
26/09:00pm 17.1 16.4 12.0 72 2.8 SSE 7 19 4 10 - - 0.0
26/08:50pm 17.1 15.7 12.1 72 2.8 ESE 11 22 6 12 - - 0.0
26/08:40pm 17.1 15.7 12.2 73 2.7 SE 11 24 6 13 - - 0.0
26/08:30pm 17.2 15.8 12.3 73 2.7 SE 11 24 6 13 - - 0.0
26/08:20pm 17.3 16.3 12.4 73 2.7 SE 9 22 5 12 - - 0.0
26/08:10pm 17.2 15.5 12.4 73 2.7 SE 13 26 7 14 - - 0.0
26/08:00pm 17.4 16.1 12.5 73 2.7 SE 11 24 6 13 - - 0.0
26/07:50pm 17.5 16.2 12.6 73 2.7 SE 11 22 6 12 - - 0.0
26/07:40pm 17.7 16.5 12.7 72 2.8 SE 11 22 6 12 - - 0.0
26/07:30pm 18.0 16.8 12.7 71 3.0 SSE 11 19 6 10 - - 0.0
26/07:20pm 18.1 16.8 12.6 70 3.1 SE 11 20 6 11 - - 0.0
26/07:10pm 18.1 17.2 12.6 70 3.1 SSE 9 22 5 12 - - 0.0
26/07:00pm 18.1 16.8 12.6 70 3.1 SSE 11 22 6 12 - - 0.0
26/06:50pm 18.2 17.0 12.8 71 3.0 SE 11 24 6 13 - - 0.0
26/06:40pm 18.2 17.0 12.8 71 3.0 SSE 11 22 6 12 - - 0.0
26/06:30pm 18.3 16.7 12.8 70 3.1 SE 13 24 7 13 - - 0.0
26/06:20pm 18.7 17.1 12.9 69 3.3 SE 13 30 7 16 - - 0.0
26/06:10pm 19.4 18.3 13.0 66 3.6 SSE 11 22 6 12 - - 0.0
26/06:00pm 19.5 18.6 12.7 65 3.8 SSE 9 24 5 13 - - 0.0
26/05:50pm 19.5 18.3 12.8 65 3.8 SSE 11 24 6 13 - - 0.0
26/05:40pm 19.8 18.6 12.7 63 4.0 SE 11 20 6 11 - - 0.0
26/05:30pm 20.0 19.2 13.0 64 4.0 SE 9 20 5 11 - - 0.0
26/05:20pm 19.8 18.9 12.6 63 4.1 SSE 9 20 5 11 - - 0.0
26/05:10pm 19.7 18.0 12.6 63 4.0 SE 13 22 7 12 - - 0.0
26/05:00pm 19.7 18.5 12.7 64 3.9 SSE 11 24 6 13 - - 0.0
26/04:50pm 19.8 18.2 12.8 64 4.0 SE 13 26 7 14 - - 0.0
26/04:40pm 19.5 18.0 13.0 66 3.7 SE 13 22 7 12 - - 0.0
26/04:30pm 19.5 18.5 13.3 67 3.5 SE 11 22 6 12 - - 0.0
26/04:20pm 19.3 18.6 13.2 68 3.5 SE 9 20 5 11 - - 0.0
26/04:10pm 19.6 19.0 13.4 67 3.5 SSE 9 20 5 11 - - 0.0
26/04:00pm 19.6 19.0 13.4 67 3.5 S 9 20 5 11 - - 0.0
26/03:50pm 19.5 18.5 13.5 68 3.4 SSE 11 26 6 14 - - 0.0
26/03:40pm 20.0 19.1 13.6 66 3.7 SSE 11 20 6 11 - - 0.0
26/03:30pm 20.0 19.1 13.6 66 3.7 SSE 11 20 6 11 - - 0.0
26/03:20pm 20.2 19.7 13.7 66 3.7 S 9 22 5 12 - - 0.0
26/03:10pm 20.4 19.9 13.9 66 3.8 SSE 9 24 5 13 - - 0.0
26/03:00pm 20.4 19.5 13.6 65 3.9 S 11 22 6 12 - - 0.0
26/02:50pm 20.6 20.0 13.5 63 4.1 S 9 22 5 12 - - 0.0
26/02:40pm 20.8 20.3 13.8 64 4.0 S 9 20 5 11 - - 0.0
26/02:30pm 20.7 20.2 13.9 65 3.9 S 9 20 5 11 - - 0.0
26/02:20pm 21.0 20.5 13.8 63 4.2 SSE 9 22 5 12 - - 0.0
26/02:10pm 21.1 20.7 14.0 64 4.1 S 9 20 5 11 - - 0.0
26/02:00pm 21.0 20.2 13.9 64 4.1 SSE 11 22 6 12 - - 0.0
26/01:50pm 21.2 20.8 14.0 63 4.2 S 9 24 5 13 - - 0.0
26/01:40pm 21.4 21.1 14.3 64 4.2 SSE 9 22 5 12 - - 0.0
26/01:30pm 21.4 21.1 14.3 64 4.2 SSE 9 19 5 10 - - 0.0
26/01:20pm 21.2 20.8 14.1 64 4.1 SSE 9 19 5 10 - - 0.0
26/01:10pm 21.5 21.2 14.3 63 4.2 SSE 9 20 5 11 - - 0.0
26/01:00pm 21.5 21.1 14.2 63 4.3 SSE 9 19 5 10 - - 0.0
26/12:50pm 21.6 21.5 13.9 61 4.5 SSE 7 19 4 10 - - 0.0
26/12:40pm 22.0 22.2 14.6 63 4.4 SSE 7 19 4 10 - - 0.0
26/12:30pm 21.7 21.7 14.1 62 4.4 SSE 7 17 4 9 - - 0.0
26/12:20pm 21.3 20.8 13.8 62 4.3 SSE 9 19 5 10 - - 0.0
26/12:10pm 21.1 20.3 14.0 64 4.1 SSE 11 20 6 11 - - 0.0
26/12:00pm 21.3 20.5 14.1 63 4.2 SSE 11 19 6 10 - - 0.0
26/11:50am 21.6 21.1 13.9 61 4.5 S 9 19 5 10 - - 0.0
26/11:40am 21.4 20.9 13.9 62 4.4 S 9 19 5 10 - - 0.0
26/11:30am 21.9 21.9 13.6 59 4.8 SSE 6 19 3 10 - - 0.0
26/11:20am 21.3 20.8 13.9 62 4.3 SSE 9 20 5 11 - - 0.0
26/11:10am 20.7 20.5 13.5 63 4.1 SSE 7 15 4 8 - - 0.0
26/11:00am 20.7 20.2 13.7 64 4.0 SSE 9 17 5 9 - - 0.0
26/10:50am 20.7 20.5 13.6 64 4.1 SSE 7 13 4 7 - - 0.0
26/10:40am 20.1 20.1 13.6 66 3.7 S 6 15 3 8 - - 0.0
26/10:30am 20.3 20.5 14.1 67 3.6 S 6 17 3 9 - - 0.0
26/10:20am 19.9 19.8 13.8 68 3.5 S 7 13 4 7 - - 0.0
26/10:10am 20.1 20.1 13.7 66 3.7 SSE 6 13 3 7 - - 0.0
26/10:00am 19.8 19.6 13.6 67 3.6 SE 7 17 4 9 - - 0.0
26/09:50am 20.2 20.1 14.0 67 3.6 S 7 17 4 9 - - 0.0
26/09:40am 19.8 19.9 14.0 69 3.3 S 6 15 3 8 - - 0.0
26/09:30am 19.5 19.4 13.8 69 3.3 S 7 15 4 8 - - 0.0
26/09:20am 19.5 19.4 13.8 69 3.3 SSE 7 15 4 8 - - 0.0
26/09:10am 19.3 19.3 13.7 70 3.2 SSE 6 13 3 7 - - 0.0
26/09:00am 19.1 18.9 13.6 70 3.1 SSE 7 17 4 9 - - 0.0
26/08:50am 19.1 18.9 13.7 71 3.1 SSE 7 17 4 9 - - 0.0
26/08:40am 19.1 18.9 13.6 70 3.1 SSE 7 17 4 9 - - 0.0
26/08:30am 18.8 18.2 13.5 71 3.0 SSE 9 17 5 9 - - 0.0
26/08:20am 18.8 18.3 13.7 72 2.9 SSE 9 22 5 12 - - 0.0
26/08:10am 18.7 18.2 13.9 73 2.8 SSE 9 19 5 10 - - 0.0
26/08:00am 18.3 18.2 13.9 75 2.5 S 7 15 4 8 - - 0.0
26/07:50am 18.2 18.1 13.9 76 2.5 SSE 7 11 4 6 - - 0.0
26/07:40am 18.1 18.2 13.9 76 2.4 SSE 6 11 3 6 - - 0.0
26/07:30am 18.0 17.9 13.8 76 2.4 SSE 7 15 4 8 - - 0.0
26/07:20am 18.0 18.1 13.8 76 2.4 SE 6 13 3 7 - - 0.0
26/07:10am 17.8 17.7 13.8 77 2.3 SE 7 17 4 9 - - 0.0
26/07:00am 17.8 17.8 13.7 77 2.3 S 6 13 3 7 - - 0.0
26/06:50am 17.7 18.1 13.6 77 2.3 S 4 9 2 5 - - 0.0
26/06:40am 17.6 18.0 13.6 77 2.3 SSE 4 9 2 5 - - 0.0
26/06:30am 17.5 17.9 13.6 78 2.2 SSE 4 7 2 4 - - 0.0
26/06:20am 17.4 17.8 13.6 78 2.2 SSE 4 11 2 6 - - 0.0
26/06:10am 17.4 17.4 13.7 79 2.1 SSE 6 15 3 8 - - 0.0
26/06:00am 17.3 17.3 13.6 79 2.1 SSE 6 15 3 8 - - 0.0
26/05:50am 17.2 17.0 13.6 79 2.0 SSE 7 13 4 7 - - 0.0
26/05:40am 17.1 16.9 13.6 80 2.0 SSE 7 15 4 8 - - 0.0
26/05:30am 17.2 17.2 13.6 79 2.0 SE 6 13 3 7 - - 0.0
26/05:20am 17.1 16.5 13.5 79 2.0 SE 9 17 5 9 - - 0.0
26/05:10am 17.1 16.2 13.6 80 2.0 SE 11 26 6 14 - - 0.0
26/05:00am 17.2 15.9 13.6 79 2.0 SE 13 22 7 12 - - 0.0
26/04:50am 17.1 15.4 13.6 80 2.0 SE 15 26 8 14 - - 0.0
26/04:40am 17.2 16.7 13.7 80 2.0 SE 9 20 5 11 - - 0.0
26/04:30am 17.1 16.2 13.7 80 1.9 SE 11 24 6 13 - - 0.0
26/04:20am 17.0 15.7 13.6 80 1.9 SE 13 22 7 12 - - 0.0
26/04:10am 17.1 16.2 13.8 81 1.9 SE 11 24 6 13 - - 0.0
26/03:50am 17.0 16.5 13.8 81 1.8 SE 9 20 5 11 - - 0.0
26/03:40am 16.9 15.3 13.8 82 1.8 SE 15 26 8 14 - - 0.0
26/03:30am 16.9 16.0 13.8 82 1.8 SE 11 20 6 11 - - 0.0
26/03:20am 16.9 16.8 13.8 82 1.8 SE 7 13 4 7 - - 0.0
26/03:10am 17.0 15.7 13.8 81 1.8 SE 13 24 7 13 - - 0.0
26/03:00am 17.0 16.1 13.8 81 1.8 SE 11 24 6 13 - - 0.0
26/02:50am 17.1 16.2 13.8 81 1.9 SE 11 24 6 13 - - 0.0
26/02:40am 17.2 16.4 13.9 81 1.9 SE 11 20 6 11 - - 0.0
26/02:30am 17.2 15.9 13.8 80 1.9 SE 13 20 7 11 - - 0.0
26/02:20am 17.3 16.0 13.8 80 2.0 ESE 13 22 7 12 - - 0.0
26/02:10am 17.3 16.0 13.8 80 2.0 SE 13 22 7 12 - - 0.0
26/02:00am 17.4 16.9 13.8 79 2.0 SSE 9 22 5 12 - - 0.0
26/01:50am 17.6 16.7 13.7 78 2.2 SE 11 17 6 9 - - 0.0
26/01:40am 17.8 16.9 13.8 77 2.3 ESE 11 17 6 9 - - 0.0
26/01:30am 17.9 17.4 13.8 77 2.3 SE 9 17 5 9 - - 0.0
26/01:20am 17.8 17.7 13.9 78 2.2 SE 7 15 4 8 - - 0.0
26/01:10am 17.7 16.5 13.9 78 2.2 SE 13 19 7 10 - - 0.0
26/01:00am 17.7 16.5 13.9 78 2.2 SE 13 20 7 11 - - 0.0
26/12:50am 17.5 17.4 14.0 80 2.0 SSE 7 11 4 6 - - 0.0
26/12:40am 17.4 17.3 13.9 80 2.0 SSE 7 15 4 8 - - 0.0
26/12:30am 17.4 17.5 13.8 79 2.0 S 6 11 3 6 - - 0.0
26/12:20am 17.4 17.8 13.8 79 2.0 S 4 7 2 4 - - 0.0
26/12:10am 17.5 17.4 13.8 79 2.1 SE 7 17 4 9 - - 0.0
26/12:00am 17.6 17.1 13.9 79 2.1 SE 9 20 5 11 - - 0.0
 
Date/Time
CDT
Temp
°C
App
Temp
°C
Dew
Point
°C
Rel
Hum
%
Delta-T
°C
Wind Press
QNH
hPa
Press
MSL
hPa
Rain since
9am
mm
Dir  Spd
km/h
Gust
km/h
Spd
kts
Gust
kts
25/11:50pm 17.6 17.5 13.9 79 2.1 S 7 20 4 11 - - 0.0
25/11:40pm 17.7 17.8 13.9 78 2.2 S 6 11 3 6 - - 0.0
25/11:30pm 17.8 17.7 14.0 78 2.2 SSE 7 20 4 11 - - 0.0
25/11:20pm 17.9 17.8 14.0 78 2.2 SSE 7 13 4 7 - - 0.0
25/11:10pm 18.0 17.6 14.0 77 2.3 SE 9 20 5 11 - - 0.0
25/11:00pm 18.2 18.4 14.1 77 2.4 S 6 11 3 6 - - 0.0
25/10:50pm 18.2 18.3 14.0 76 2.4 S 6 11 3 6 - - 0.0
25/10:40pm 18.6 19.1 13.9 74 2.7 SSW 4 9 2 5 - - 0.0
25/10:30pm 18.8 19.7 14.0 73 2.8 SSW 2 7 1 4 - - 0.0
25/10:20pm 18.9 19.4 14.0 73 2.8 S 4 9 2 5 - - 0.0
25/10:10pm 18.8 19.3 14.1 74 2.7 WSW 4 7 2 4 - - 0.0
25/10:00pm 19.0 19.5 14.1 73 2.8 SSE 4 9 2 5 - - 0.0
25/09:50pm 19.0 18.6 14.2 73 2.8 ESE 9 22 5 12 - - 0.0
25/09:40pm 19.1 17.6 14.3 73 2.8 ESE 15 33 8 18 - - 0.0
25/09:30pm 19.3 17.9 14.4 73 2.8 ESE 15 26 8 14 - - 0.0
25/09:20pm 19.9 18.5 14.6 71 3.1 ESE 15 28 8 15 - - 0.0
25/09:10pm 20.6 20.1 14.9 70 3.4 SE 11 26 6 14 - - 0.0
25/09:00pm 20.4 20.7 14.9 70 3.2 SSE 7 17 4 9 - - 0.0
25/08:50pm 20.2 20.6 14.7 70 3.2 S 6 13 3 7 - - 0.0
25/08:40pm 20.4 20.6 14.7 70 3.3 S 7 15 4 8 - - 0.0
25/08:30pm 20.6 21.0 14.8 69 3.4 S 6 15 3 8 - - 0.0
25/08:20pm 20.8 21.0 14.8 68 3.5 S 7 13 4 7 - - 0.0
25/08:10pm 20.9 20.7 14.7 67 3.6 SSW 9 17 5 9 - - 0.0
25/08:00pm 21.1 21.0 15.0 68 3.6 SSW 9 19 5 10 - - 0.0
25/07:50pm 21.4 21.4 15.1 67 3.7 SSW 9 20 5 11 - - 0.0
25/07:40pm 21.9 22.3 15.2 65 4.0 SSW 7 20 4 11 - - 0.0
25/07:30pm 22.3 22.3 15.2 64 4.2 SSW 9 17 5 9 - - 0.0
25/07:20pm 22.8 23.4 15.3 62 4.5 SW 6 13 3 7 - - 0.0
25/07:10pm 22.8 23.2 15.2 62 4.5 SSW 7 17 4 9 - - 0.0
25/07:00pm 23.2 23.5 15.1 60 4.8 S 7 17 4 9 - - 0.0
25/06:50pm 23.6 23.5 15.0 58 5.1 S 9 19 5 10 - - 0.0
25/06:40pm 23.9 23.3 14.6 56 5.5 S 11 22 6 12 - - 0.0
25/06:30pm 24.2 23.5 14.3 54 5.9 S 11 22 6 12 - - 0.0
25/06:20pm 25.0 24.2 13.9 50 6.5 SSW 11 20 6 11 - - 0.0
25/06:10pm 24.7 23.9 14.0 51 6.3 SSW 11 20 6 11 - - 0.0
25/06:00pm 24.4 23.6 14.0 52 6.1 SSW 11 22 6 12 - - 0.0
25/05:50pm 25.2 24.6 14.7 52 6.3 SSW 11 24 6 13 - - 0.0
25/05:40pm 24.6 23.9 15.3 56 5.6 SW 13 26 7 14 - - 0.0
25/05:30pm 26.0 26.0 15.3 51 6.5 SSW 9 20 5 11 - - 0.0
25/05:20pm 25.4 25.1 15.4 54 6.1 S 11 24 6 13 - - 0.0
25/05:10pm 25.4 25.1 14.4 50 6.6 S 9 20 5 11 - - 0.0
25/05:00pm 25.7 25.9 14.8 51 6.5 SSW 7 19 4 10 - - 0.0
25/04:50pm 25.6 25.5 15.0 52 6.4 SW 9 22 5 12 - - 0.0
25/04:40pm 25.8 25.4 15.1 51 6.5 SSW 11 22 6 12 - - 0.0
25/04:30pm 25.4 25.4 15.1 53 6.2 WSW 9 19 5 10 - - 0.0
25/04:20pm 25.4 24.9 15.0 52 6.3 SW 11 20 6 11 - - 0.0
25/04:10pm 25.7 25.2 14.8 51 6.5 SSW 11 22 6 12 - - 0.0
25/04:00pm 25.4 24.7 14.4 50 6.6 SSW 11 24 6 13 - - 0.0
25/03:50pm 25.5 24.9 14.6 51 6.5 SSW 11 24 6 13 - - 0.0
25/03:40pm 25.8 25.1 14.4 49 6.8 SSW 11 20 6 11 - - 0.0
25/03:30pm 26.0 25.8 14.6 49 6.8 SSW 9 22 5 12 - - 0.0
25/03:20pm 26.1 25.7 14.2 48 7.1 SSW 9 24 5 13 - - 0.0
25/03:10pm 25.2 24.7 14.8 52 6.2 SW 11 22 6 12 - - 0.0
25/03:00pm 25.1 24.7 15.2 54 6.0 SW 11 24 6 13 - - 0.0
25/02:50pm 24.9 24.6 15.4 55 5.7 SW 11 24 6 13 - - 0.0
25/02:40pm 24.6 24.7 15.6 57 5.5 WSW 9 19 5 10 - - 0.0
25/02:30pm 24.8 25.2 15.3 55 5.7 SW 7 17 4 9 - - 0.0
25/02:20pm 24.3 24.3 15.1 56 5.5 WSW 9 19 5 10 - - 0.0
25/02:10pm 24.2 24.3 15.6 58 5.2 WSW 9 17 5 9 - - 0.0
25/02:00pm 23.8 24.4 15.9 61 4.8 SW 7 17 4 9 - - 0.0
25/01:50pm 23.0 23.8 16.3 66 4.1 SW 7 19 4 10 - - 0.0
25/01:40pm 22.6 23.0 16.3 67 3.8 WSW 9 19 5 10 - - 0.0
25/01:30pm 22.1 22.1 16.3 69 3.5 WSW 11 20 6 11 - - 0.0
25/01:20pm 22.7 22.7 16.3 67 3.9 WSW 11 19 6 10 - - 0.0
25/01:10pm 23.5 23.8 15.9 62 4.6 WSW 9 20 5 11 - - 0.0
25/01:00pm 23.5 23.3 15.6 61 4.8 WSW 11 20 6 11 - - 0.0
25/12:50pm 23.4 23.3 15.9 62 4.5 W 11 19 6 10 - - 0.0
25/12:40pm 23.8 23.7 16.0 61 4.7 WSW 11 20 6 11 - - 0.0
25/12:30pm 24.2 24.4 15.8 59 5.1 WSW 9 19 5 10 - - 0.0
25/12:20pm 23.7 23.8 15.6 60 4.9 W 9 19 5 10 - - 0.0
25/12:10pm 23.8 23.9 15.6 60 5.0 WSW 9 17 5 9 - - 0.0
25/12:00pm 23.5 23.3 15.6 61 4.8 W 11 22 6 12 - - 0.0
25/11:50am 23.2 23.0 15.7 62 4.5 WSW 11 20 6 11 - - 0.0
25/11:40am 23.7 23.6 15.9 61 4.7 W 11 19 6 10 - - 0.0
25/11:30am 24.2 24.2 15.2 57 5.4 WSW 9 19 5 10 - - 0.0
25/11:20am 24.8 24.7 15.0 54 5.9 WSW 9 19 5 10 - - 0.0
25/11:10am 25.2 24.8 14.0 49 6.6 WSW 9 19 5 10 - - 0.0
25/11:00am 25.1 25.2 14.0 50 6.6 WSW 6 17 3 9 - - 0.0
25/10:50am 25.2 25.5 14.6 51 6.3 WSW 6 11 3 6 - - 0.0
25/10:40am 25.6 26.5 15.0 52 6.4 SW 4 9 2 5 - - 0.0
25/10:30am 25.2 25.9 14.5 51 6.4 SSW 4 9 2 5 - - 0.0
25/10:20am 25.2 25.9 14.4 51 6.4 ESE 4 9 2 5 - - 0.0
25/10:10am 24.5 25.3 14.7 54 5.8 ENE 4 9 2 5 - - 0.0
25/10:00am 23.3 23.5 14.3 57 5.3 SSE 6 11 3 6 - - 0.0
25/09:50am 22.6 22.4 14.7 61 4.7 SE 9 15 5 8 - - 0.0
25/09:40am 22.5 22.7 14.8 61 4.6 SE 7 11 4 6 - - 0.0
25/09:20am 21.6 21.7 14.4 63 4.2 SSE 7 15 4 8 - - 2.4
25/09:10am 21.7 22.0 14.9 65 4.0 SSE 7 15 4 8 - - 2.4
25/09:00am 21.4 21.2 14.8 66 3.9 SE 9 17 5 9 - - 2.4
25/08:50am 21.6 22.0 15.2 67 3.8 ESE 7 15 4 8 - - 2.4
25/08:40am 21.2 21.4 14.8 67 3.8 SE 7 15 4 8 - - 2.4
25/08:30am 20.7 20.5 14.7 68 3.5 SE 9 13 5 7 - - 2.4
25/08:20am 20.5 20.9 14.7 69 3.4 ESE 6 13 3 7 - - 2.4
25/08:10am 20.4 20.6 14.8 70 3.3 SE 7 15 4 8 - - 2.4
25/08:00am 20.2 21.0 14.7 70 3.2 SSE 4 11 2 6 - - 2.4
25/07:50am 20.1 21.0 14.1 68 3.5 ESE 2 4 1 2 - - 2.4
25/07:40am 20.2 21.3 14.5 69 3.3 SE 2 4 1 2 - - 2.4
25/07:30am 20.0 20.9 14.0 68 3.5 SE 2 6 1 3 - - 2.4
25/07:20am 20.1 20.9 13.8 67 3.6 E 2 7 1 4 - - 2.4
25/07:10am 20.2 21.1 14.0 67 3.6 E 2 6 1 3 - - 2.4
25/07:00am 20.0 20.6 14.3 69 3.3 E 4 7 2 4 - - 2.4
25/06:50am 19.3 20.3 14.2 72 2.9 E 2 7 1 4 - - 2.4
25/06:40am 19.0 19.5 14.1 73 2.8 ENE 4 9 2 5 - - 2.4
25/06:30am 18.8 19.8 14.2 74 2.7 E 2 6 1 3 - - 2.4
25/06:20am 18.7 19.7 14.2 75 2.6 E 2 6 1 3 - - 2.4
25/06:10am 18.4 19.3 14.1 76 2.5 ESE 2 6 1 3 - - 2.4
25/06:00am 18.0 18.8 13.8 76 2.4 SSE 2 6 1 3 - - 2.4
25/05:50am 18.1 18.5 13.8 76 2.5 SSE 4 6 2 3 - - 2.4
25/05:40am 17.9 18.3 13.6 76 2.4 SSE 4 6 2 3 - - 2.4
25/05:30am 18.2 18.9 13.4 73 2.7 ENE 2 4 1 2 - - 2.4
25/05:20am 18.3 19.0 13.4 73 2.8 ENE 2 7 1 4 - - 2.4
25/05:10am 18.3 18.9 13.2 72 2.9 NE 2 6 1 3 - - 2.4
25/05:00am 18.5 19.2 13.4 72 2.9 E 2 7 1 4 - - 2.4
25/04:50am 18.5 19.5 13.2 71 3.0 CALM 0 2 0 1 - - 2.4
25/04:40am 19.0 19.6 13.1 68 3.3 ENE 2 4 1 2 - - 2.4
25/04:30am 19.2 19.8 13.1 68 3.5 ENE 2 6 1 3 - - 2.4
25/04:20am 19.4 20.0 13.0 66 3.6 ENE 2 6 1 3 - - 2.4
25/04:10am 19.6 20.2 13.0 65 3.7 NE 2 7 1 4 - - 2.4
25/04:00am 19.8 20.0 12.9 64 3.9 NE 4 11 2 6 - - 2.4
25/03:50am 19.4 20.0 13.1 67 3.6 NNE 2 6 1 3 - - 2.4
25/03:40am 19.5 20.2 13.3 67 3.5 ENE 2 7 1 4 - - 2.4
25/03:30am 19.3 19.6 13.5 69 3.3 ENE 4 9 2 5 - - 2.4
25/03:20am 19.2 19.0 13.6 70 3.2 E 7 17 4 9 - - 2.4
25/03:10am 19.0 18.5 13.8 72 3.0 ESE 9 15 5 8 - - 2.4
25/03:00am 19.0 19.4 13.6 71 3.1 E 4 15 2 8 - - 2.4
25/02:50am 19.0 18.8 13.6 71 3.1 NE 7 20 4 11 - - 2.4
25/02:40am 19.3 19.2 13.4 68 3.4 NNE 6 19 3 10 - - 2.4
25/02:30am 19.3 19.6 13.3 68 3.4 NNW 4 7 2 4 - - 2.4
25/02:20am 19.1 19.4 13.3 69 3.3 W 4 7 2 4 - - 2.4
25/02:10am 19.2 19.4 13.2 68 3.4 WSW 4 7 2 4 - - 2.4
25/02:00am 19.3 19.5 13.1 67 3.5 SW 4 11 2 6 - - 2.4
25/01:50am 19.5 19.3 13.1 66 3.6 E 6 19 3 10 - - 2.4
25/01:40am 19.5 19.3 13.0 66 3.7 E 6 17 3 9 - - 2.4
25/01:30am 19.5 19.3 13.0 66 3.7 E 6 15 3 8 - - 2.4
25/01:20am 19.5 19.1 13.0 66 3.7 E 7 22 4 12 - - 2.4
25/01:10am 19.5 19.1 12.9 65 3.7 E 7 20 4 11 - - 2.4
25/01:00am 19.5 19.6 12.8 65 3.8 E 4 22 2 12 - - 2.4
25/12:50am 19.5 19.6 12.8 65 3.8 ESE 4 13 2 7 - - 2.4
25/12:40am 19.6 19.1 12.8 65 3.8 E 7 22 4 12 - - 2.4
25/12:30am 19.6 18.4 12.7 64 3.9 E 11 26 6 14 - - 2.4
25/12:20am 19.6 17.6 12.8 65 3.8 ESE 15 30 8 16 - - 2.4
25/12:10am 19.7 18.1 12.7 64 3.9 ESE 13 30 7 16 - - 2.4
25/12:00am 19.8 18.2 12.8 64 4.0 ESE 13 26 7 14 - - 2.4
 
Date/Time
CDT
Temp
°C
App
Temp
°C
Dew
Point
°C
Rel
Hum
%
Delta-T
°C
Wind Press
QNH
hPa
Press
MSL
hPa
Rain since
9am
mm
Dir  Spd
km/h
Gust
km/h
Spd
kts
Gust
kts
24/11:50pm 19.9 18.2 12.6 63 4.1 ESE 13 28 7 15 - - 2.4
24/11:40pm 19.8 18.6 12.7 63 4.0 ESE 11 24 6 13 - - 2.4
24/11:30pm 19.7 19.4 12.8 64 3.9 ESE 6 20 3 11 - - 2.4
24/11:20pm 19.6 19.3 12.6 64 3.9 ESE 6 19 3 10 - - 2.4
24/11:10pm 19.6 19.4 12.9 65 3.8 E 6 15 3 8 - - 2.4
24/11:00pm 19.6 19.8 13.1 66 3.7 S 4 7 2 4 - - 2.4
24/10:50pm 19.7 19.9 13.0 65 3.8 WNW 4 7 2 4 - - 2.4
24/10:40pm 19.9 20.1 12.9 64 4.0 N 4 17 2 9 - - 2.4
24/10:30pm 19.9 19.7 12.9 64 4.0 S 6 17 3 9 - - 2.4
24/10:20pm 20.0 18.1 13.0 64 4.0 ESE 15 33 8 18 - - 2.4
24/10:10pm 20.2 18.0 13.2 64 4.0 ESE 17 30 9 16 - - 2.4
24/10:00pm 20.2 18.0 13.2 64 4.0 ESE 17 33 9 18 - - 2.4
24/09:50pm 20.3 17.6 13.5 65 3.9 ESE 20 33 11 18 - - 2.4
24/09:40pm 20.5 17.8 13.4 63 4.1 ESE 20 37 11 20 - - 2.4
24/09:30pm 20.7 18.6 13.7 64 4.0 ESE 17 30 9 16 - - 2.4
24/09:20pm 20.9 19.7 14.1 65 4.0 ESE 13 32 7 17 - - 2.4
24/09:10pm 21.1 19.5 13.9 63 4.2 ESE 15 28 8 15 - - 2.4
24/09:00pm 21.2 19.5 13.7 62 4.3 ESE 15 30 8 16 - - 2.4
24/08:50pm 21.3 19.7 13.9 62 4.3 ESE 15 30 8 16 - - 2.4
24/08:40pm 21.4 19.4 13.9 62 4.4 ESE 17 32 9 17 - - 2.4
24/08:30pm 21.5 20.4 14.3 63 4.2 ESE 13 24 7 13 - - 2.4
24/08:20pm 21.6 20.2 14.5 64 4.2 ESE 15 32 8 17 - - 2.4
24/08:10pm 21.8 20.9 14.9 65 4.1 ESE 13 26 7 14 - - 2.4
24/08:00pm 22.0 21.6 15.3 65 4.0 ESE 11 20 6 11 - - 2.4
24/07:50pm 22.1 21.1 15.7 67 3.8 ESE 15 30 8 16 - - 2.4
24/07:40pm 22.1 21.1 15.7 67 3.8 ESE 15 35 8 19 - - 2.4
24/07:30pm 22.2 20.9 15.7 66 3.9 ESE 17 28 9 15 - - 2.4
24/07:20pm 22.7 22.6 16.1 66 4.0 ESE 11 22 6 12 - - 2.4
24/07:10pm 23.1 23.3 16.8 67 3.9 SE 11 20 6 11 - - 2.4
24/07:00pm 23.5 24.1 16.9 66 4.1 ESE 9 17 5 9 - - 2.4
24/06:50pm 23.5 25.0 17.5 69 3.7 E 6 13 3 7 - - 2.4
24/06:40pm 23.5 26.3 19.7 79 2.4 S 4 6 2 3 - - 2.4
24/06:30pm 23.3 26.1 18.8 76 2.9 SE 2 6 1 3 - - 2.4
24/06:20pm 22.7 25.5 18.8 78 2.5 SE 2 4 1 2 - - 2.4
24/06:10pm 22.4 24.9 19.0 81 2.2 WSW 4 7 2 4 - - 2.4
24/06:00pm 22.4 24.3 19.0 81 2.2 NW 7 11 4 6 - - 2.4
24/05:50pm 24.0 26.1 19.4 75 2.9 NNE 7 17 4 9 - - 2.0
24/05:40pm 26.6 28.4 17.4 57 5.8 NNE 4 17 2 9 - - 0.6
24/05:30pm 26.7 27.8 17.0 55 6.1 S 7 17 4 9 - - 0.4
24/05:20pm 28.9 29.3 15.4 44 8.3 SSW 7 17 4 9 - - 0.0
24/05:10pm 27.6 28.0 14.7 45 7.8 S 6 15 3 8 - - 0.0
24/05:00pm 26.7 26.7 15.1 49 7.0 SSE 9 19 5 10 - - 0.0
24/04:50pm 26.7 27.1 15.3 49 6.9 ESE 7 15 4 8 - - 0.0
24/04:40pm 26.3 26.4 15.6 51 6.5 ESE 9 19 5 10 - - 0.0
24/04:30pm 26.3 25.3 15.5 51 6.6 SE 15 24 8 13 - - 0.0
24/04:20pm 26.6 26.3 15.5 50 6.8 ESE 11 22 6 12 - - 0.0
24/04:10pm 26.8 26.9 16.4 53 6.4 ESE 11 20 6 11 - - 0.0
24/04:00pm 25.9 26.2 15.9 54 6.1 ESE 9 19 5 10 - - 0.0
24/03:50pm 26.2 26.3 15.5 51 6.5 ESE 9 15 5 8 - - 0.0
24/03:30pm 26.6 26.2 15.1 49 7.0 ESE 11 20 6 11 - - 0.0
24/03:20pm 27.1 27.1 15.2 48 7.2 SE 9 20 5 11 - - 0.0
24/03:10pm 27.4 28.0 15.3 47 7.4 SE 6 13 3 7 - - 0.0
24/03:00pm 26.1 26.6 15.0 50 6.7 SSE 6 13 3 7 - - 0.0
24/02:50pm 25.8 26.1 14.9 51 6.6 SE 7 13 4 7 - - 0.0
24/02:40pm 26.4 27.3 15.0 49 6.9 E 4 13 2 7 - - 0.0
24/02:30pm 26.2 27.1 14.1 47 7.2 NNW 2 6 1 3 - - 0.0
24/02:20pm 26.2 26.6 13.7 46 7.4 SSW 4 7 2 4 - - 0.0
24/02:10pm 26.2 26.2 12.3 42 8.0 WSW 4 13 2 7 - - 0.0
24/02:00pm 26.2 26.0 12.9 43 7.8 SSW 6 11 3 6 - - 0.0
24/01:50pm 25.9 25.9 13.5 46 7.3 SW 6 11 3 6 - - 0.0
24/01:40pm 26.5 26.2 12.7 42 8.0 W 6 11 3 6 - - 0.0
24/01:30pm 26.2 25.9 12.7 43 7.9 SW 6 11 3 6 - - 0.0
24/01:20pm 26.9 26.4 12.6 41 8.3 W 7 13 4 7 - - 0.0
24/01:10pm 29.0 28.9 13.3 38 9.3 W 6 13 3 7 - - 0.0
24/01:00pm 27.7 28.2 14.0 43 8.2 WNW 4 9 2 5 - - 0.0
24/12:50pm 27.5 27.4 13.4 41 8.3 W 6 9 3 5 - - 0.0
24/12:40pm 27.3 27.3 13.6 43 8.1 SSW 6 11 3 6 - - 0.0
24/12:30pm 25.9 26.3 13.8 47 7.2 SW 4 7 2 4 - - 0.0
24/12:20pm 24.7 25.6 14.1 51 6.3 WSW 2 7 1 4 - - 0.0
24/12:10pm 24.2 24.9 14.4 54 5.8 WSW 4 7 2 4 - - 0.0
24/12:00pm 24.1 24.5 13.8 52 6.0 SW 4 9 2 5 - - 0.0
24/11:50am 24.2 24.0 13.7 52 6.2 WSW 7 15 4 8 - - 0.0
24/11:40am 24.3 24.1 13.7 51 6.2 WSW 7 17 4 9 - - 0.0
24/11:30am 24.6 24.0 13.4 49 6.5 WSW 9 17 5 9 - - 0.0
24/11:20am 25.3 25.1 13.5 48 6.9 WSW 7 17 4 9 - - 0.0
24/11:10am 26.5 26.3 13.5 44 7.7 W 7 15 4 8 - - 0.0

Other Formats:

Comma delimited format used in spreadsheet applications
http://www.bom.gov.au/fwo/IDS60801/IDS60801.99058.axf

JavaScript Object Notation format (JSON) in row-major order
http://www.bom.gov.au/fwo/IDS60801/IDS60801.99058.json